createdAt,value
2024-02-27T00:02:07.215Z,53.51
2024-02-27T00:04:34.689Z,53.65
2024-02-27T00:07:01.239Z,53.60
2024-02-27T00:09:27.805Z,53.65
2024-02-27T00:11:55.319Z,54.08
2024-02-27T00:14:21.816Z,53.74
2024-02-27T00:16:48.247Z,53.77
2024-02-27T00:19:14.809Z,54.03
2024-02-27T00:21:41.350Z,53.83
2024-02-27T00:24:08.127Z,54.04
2024-02-27T00:26:34.643Z,54.02
2024-02-27T00:29:01.133Z,53.98
2024-02-27T00:31:27.561Z,53.78
2024-02-27T00:33:54.022Z,53.87
2024-02-27T00:36:20.521Z,53.98
2024-02-27T00:38:47.055Z,54.11
2024-02-27T00:41:13.576Z,54.39
2024-02-27T00:43:39.986Z,54.53
2024-02-27T00:46:06.388Z,54.20
2024-02-27T00:48:32.897Z,54.14
2024-02-27T00:50:59.384Z,54.37
2024-02-27T00:53:25.797Z,54.29
2024-02-27T00:55:52.214Z,54.89
2024-02-27T00:58:18.644Z,54.43
2024-02-27T01:00:45.150Z,54.48
2024-02-27T01:03:11.709Z,54.55
2024-02-27T01:05:38.299Z,54.65
2024-02-27T01:08:05.153Z,54.50
2024-02-27T01:10:31.576Z,54.57
2024-02-27T01:12:58.030Z,54.60
2024-02-27T01:15:24.588Z,54.66
2024-02-27T01:17:51.323Z,54.60
2024-02-27T01:20:17.855Z,54.60
2024-02-27T01:22:44.388Z,54.51
2024-02-27T01:25:13.536Z,54.71
2024-02-27T01:27:40.175Z,54.63
2024-02-27T01:30:07.107Z,54.87
2024-02-27T01:32:33.668Z,54.62
2024-02-27T01:35:00.267Z,55.03
2024-02-27T01:37:26.810Z,54.70
2024-02-27T01:39:53.243Z,54.85
2024-02-27T01:42:19.794Z,54.79
2024-02-27T01:44:52.113Z,55.05
2024-02-27T01:47:20.301Z,54.90
2024-02-27T01:49:48.977Z,55.01
2024-02-27T01:52:17.088Z,54.81
2024-02-27T01:54:45.983Z,55.14
2024-02-27T01:57:13.224Z,55.01
2024-02-27T01:59:42.701Z,54.70
2024-02-27T02:02:09.879Z,55.13
2024-02-27T02:04:36.666Z,54.95
2024-02-27T02:07:04.366Z,55.00
2024-02-27T02:09:31.912Z,55.08
2024-02-27T02:11:59.919Z,55.01
2024-02-27T02:14:26.479Z,55.00
2024-02-27T02:16:53.673Z,54.87
2024-02-27T02:19:20.503Z,55.08
2024-02-27T02:21:54.044Z,55.10
2024-02-27T02:24:22.347Z,54.93
2024-02-27T02:26:49.010Z,55.08
2024-02-27T02:29:15.420Z,54.93
2024-02-27T02:31:41.838Z,55.23
2024-02-27T02:34:08.527Z,55.30
2024-02-27T02:36:35.176Z,55.13
2024-02-27T02:39:01.793Z,55.21
2024-02-27T02:41:28.329Z,55.07
2024-02-27T02:43:54.779Z,55.71
2024-02-27T02:46:21.164Z,55.17
2024-02-27T02:48:47.795Z,55.17
2024-02-27T02:51:14.355Z,55.06
2024-02-27T02:53:40.840Z,55.41
2024-02-27T02:56:07.535Z,55.27
2024-02-27T02:58:33.999Z,55.33
2024-02-27T03:01:00.546Z,55.34
2024-02-27T03:03:27.133Z,55.37
2024-02-27T03:05:53.704Z,55.46
2024-02-27T03:08:20.178Z,55.25
2024-02-27T03:10:46.645Z,55.29
2024-02-27T03:13:13.585Z,55.47
2024-02-27T03:15:40.098Z,55.46
2024-02-27T03:18:06.732Z,55.26
2024-02-27T03:20:33.203Z,55.48
2024-02-27T03:22:59.642Z,55.42
2024-02-27T03:25:26.076Z,55.28
2024-02-27T03:27:52.543Z,55.67
2024-02-27T03:30:20.004Z,55.32
2024-02-27T03:32:46.859Z,55.51
2024-02-27T03:35:13.357Z,55.66
2024-02-27T03:37:40.222Z,55.58
2024-02-27T03:40:10.319Z,55.61
2024-02-27T03:42:36.989Z,55.53
2024-02-27T03:45:03.729Z,55.55
2024-02-27T03:47:30.119Z,55.73
2024-02-27T03:49:56.685Z,55.83
2024-02-27T03:52:23.143Z,55.94
2024-02-27T03:54:49.541Z,55.59
2024-02-27T03:57:15.999Z,55.32
2024-02-27T03:59:42.430Z,56.16
2024-02-27T04:02:09.048Z,55.90
2024-02-27T04:04:35.494Z,55.78
2024-02-27T04:07:02.060Z,55.72
2024-02-27T04:09:29.235Z,55.50
2024-02-27T04:11:55.762Z,56.19
2024-02-27T04:14:22.155Z,55.38
2024-02-27T04:16:48.571Z,55.75
2024-02-27T04:19:15.142Z,55.54
2024-02-27T04:21:41.759Z,55.59
2024-02-27T04:24:08.369Z,55.68
2024-02-27T04:26:34.841Z,55.77
2024-02-27T04:29:01.303Z,55.53
2024-02-27T04:31:27.766Z,55.62
2024-02-27T04:33:54.352Z,55.69
2024-02-27T04:36:21.023Z,55.76
2024-02-27T04:38:47.490Z,55.61
2024-02-27T04:41:14.065Z,55.90
2024-02-27T04:43:40.513Z,55.47
2024-02-27T04:46:06.926Z,55.68
2024-02-27T04:48:33.487Z,55.66
2024-02-27T04:51:00.064Z,55.81
2024-02-27T04:53:26.488Z,55.34
2024-02-27T04:55:52.938Z,55.64
2024-02-27T04:58:19.361Z,55.81
2024-02-27T05:00:45.985Z,55.59
2024-02-27T05:03:12.525Z,55.87
2024-02-27T05:05:38.979Z,55.66
2024-02-27T05:08:05.651Z,55.80
2024-02-27T05:10:33.319Z,55.66
2024-02-27T05:13:01.550Z,55.67
2024-02-27T05:15:28.156Z,55.75
2024-02-27T05:17:54.686Z,55.65
2024-02-27T05:20:21.138Z,55.74
2024-02-27T05:22:47.534Z,55.48
2024-02-27T05:25:14.191Z,55.70
2024-02-27T05:27:40.650Z,55.82
2024-02-27T05:30:08.332Z,55.59
2024-02-27T05:32:35.310Z,55.75
2024-02-27T05:35:02.155Z,55.61
2024-02-27T05:37:28.718Z,55.82
2024-02-27T05:39:55.110Z,55.62
2024-02-27T05:42:22.932Z,55.82
2024-02-27T05:44:49.355Z,55.75
2024-02-27T05:47:15.825Z,55.56
2024-02-27T05:49:42.454Z,55.46
2024-02-27T05:52:08.975Z,55.75
2024-02-27T05:54:35.442Z,55.69
2024-02-27T05:57:01.999Z,55.64
2024-02-27T05:59:28.434Z,55.52
2024-02-27T06:01:54.816Z,55.97
2024-02-27T06:04:21.516Z,55.60
2024-02-27T06:06:48.071Z,55.70
2024-02-27T06:09:14.752Z,55.68
2024-02-27T06:11:42.430Z,55.87
2024-02-27T06:14:08.897Z,55.87
2024-02-27T06:16:35.317Z,55.75
2024-02-27T06:19:01.938Z,55.72
2024-02-27T06:21:46.833Z,55.90
2024-02-27T06:24:13.364Z,55.88
2024-02-27T06:26:39.845Z,55.79
2024-02-27T06:29:06.238Z,55.78
2024-02-27T06:31:32.966Z,55.85
2024-02-27T06:34:01.159Z,55.71
2024-02-27T06:36:27.724Z,55.69
2024-02-27T06:38:57.141Z,55.71
2024-02-27T06:41:25.112Z,56.12
2024-02-27T06:43:51.705Z,56.08
2024-02-27T06:46:18.132Z,56.34
2024-02-27T06:48:44.683Z,56.47
2024-02-27T06:51:11.169Z,56.37
2024-02-27T06:53:38.202Z,56.60
2024-02-27T06:56:05.038Z,56.66
2024-02-27T06:58:31.508Z,56.70
2024-02-27T07:00:57.997Z,56.91
2024-02-27T07:03:24.450Z,57.03
2024-02-27T07:05:53.787Z,57.09
2024-02-27T07:08:21.267Z,57.14
2024-02-27T07:10:47.782Z,57.12
2024-02-27T07:13:14.327Z,57.27
2024-02-27T07:15:43.227Z,57.05
2024-02-27T07:18:10.206Z,57.28
2024-02-27T07:20:37.150Z,56.99
2024-02-27T07:23:04.214Z,57.03
2024-02-27T07:25:30.595Z,57.13
2024-02-27T07:27:57.055Z,56.69
2024-02-27T07:30:24.105Z,57.04
2024-02-27T07:32:50.597Z,56.30
2024-02-27T07:35:17.010Z,56.77
2024-02-27T07:37:43.516Z,55.72
2024-02-27T07:40:11.123Z,55.70
2024-02-27T07:42:38.034Z,55.62
2024-02-27T07:45:06.881Z,55.76
2024-02-27T07:47:33.556Z,55.62
2024-02-27T07:50:00.027Z,55.70
2024-02-27T07:52:26.563Z,55.25
2024-02-27T07:54:53.082Z,55.21
2024-02-27T07:57:19.738Z,55.17
2024-02-27T07:59:46.164Z,55.32
2024-02-27T08:02:12.649Z,55.27
2024-02-27T08:04:39.402Z,55.17
2024-02-27T08:07:06.045Z,55.04
2024-02-27T08:09:34.278Z,55.05
2024-02-27T08:12:00.867Z,54.84
2024-02-27T08:14:30.397Z,54.95
2024-02-27T08:16:59.185Z,54.96
2024-02-27T08:19:26.866Z,54.56
2024-02-27T08:21:53.472Z,54.45
2024-02-27T08:24:20.333Z,54.38
2024-02-27T08:26:50.422Z,54.06
2024-02-27T08:29:18.581Z,54.43
2024-02-27T08:31:44.995Z,53.91
2024-02-27T08:34:11.572Z,53.60
2024-02-27T08:36:38.376Z,53.69
2024-02-27T08:39:05.431Z,53.72
2024-02-27T08:41:33.958Z,53.39
2024-02-27T08:44:00.441Z,52.75
2024-02-27T08:46:26.965Z,52.68
2024-02-27T08:48:54.371Z,52.72
2024-02-27T08:51:21.054Z,52.82
2024-02-27T08:53:48.096Z,52.96
2024-02-27T08:56:14.821Z,52.98
2024-02-27T08:58:41.303Z,52.96
2024-02-27T09:01:07.861Z,52.79
2024-02-27T09:03:35.763Z,52.90
2024-02-27T09:06:03.492Z,52.91
2024-02-27T09:08:30.132Z,52.61
2024-02-27T09:10:56.537Z,52.89
2024-02-27T09:13:23.044Z,52.55
2024-02-27T09:15:49.580Z,52.65
2024-02-27T09:18:16.242Z,52.56
2024-02-27T09:20:44.647Z,52.75
2024-02-27T09:23:11.774Z,52.44
2024-02-27T09:25:39.052Z,52.49
2024-02-27T09:28:06.206Z,53.00
2024-02-27T09:30:32.721Z,52.32
2024-02-27T09:32:59.251Z,52.31
2024-02-27T09:35:25.663Z,52.11
2024-02-27T09:37:53.641Z,52.11
2024-02-27T09:40:22.054Z,52.32
2024-02-27T09:42:56.140Z,52.23
2024-02-27T09:45:27.083Z,52.46
2024-02-27T09:47:55.057Z,52.02
2024-02-27T09:50:23.365Z,52.09
2024-02-27T09:52:52.286Z,52.30
2024-02-27T09:55:22.756Z,52.36
2024-02-27T09:57:50.106Z,52.44
2024-02-27T10:00:20.470Z,52.33
2024-02-27T10:02:50.260Z,52.64
2024-02-27T10:05:21.876Z,52.65
2024-02-27T10:07:52.064Z,52.39
2024-02-27T10:10:19.511Z,52.34
2024-02-27T10:12:46.134Z,52.05
2024-02-27T10:15:13.208Z,52.01
2024-02-27T10:17:40.415Z,51.92
2024-02-27T10:20:11.662Z,51.62
2024-02-27T10:22:42.262Z,51.62
2024-02-27T10:25:12.121Z,51.89
2024-02-27T10:27:41.930Z,51.65
2024-02-27T10:30:10.221Z,51.56
2024-02-27T10:32:37.009Z,51.54
2024-02-27T10:35:04.809Z,51.55
2024-02-27T10:37:35.921Z,51.35
2024-02-27T10:40:03.428Z,51.36
2024-02-27T10:42:31.098Z,51.45
2024-02-27T10:44:58.253Z,51.16
2024-02-27T10:47:28.097Z,51.16
2024-02-27T10:49:55.114Z,51.18
2024-02-27T10:52:26.261Z,51.28
2024-02-27T10:54:54.497Z,51.13
2024-02-27T10:57:21.105Z,51.21
2024-02-27T10:59:48.429Z,50.98
2024-02-27T11:02:21.048Z,51.22
2024-02-27T11:04:52.397Z,51.41
2024-02-27T11:07:19.331Z,51.20
2024-02-27T11:09:50.099Z,51.22
2024-02-27T11:12:16.791Z,51.52
2024-02-27T11:14:46.753Z,51.34
2024-02-27T11:17:24.880Z,51.47
2024-02-27T11:19:52.828Z,51.66
2024-02-27T11:22:21.583Z,51.61
2024-02-27T11:24:48.847Z,51.76
2024-02-27T11:27:20.910Z,51.68
2024-02-27T11:29:49.783Z,51.84
2024-02-27T11:32:16.654Z,51.80
2024-02-27T11:34:43.349Z,52.02
2024-02-27T11:37:14.251Z,52.10
2024-02-27T11:39:41.040Z,52.19
2024-02-27T11:42:35.537Z,51.89
2024-02-27T11:45:14.077Z,52.10
2024-02-27T11:47:43.506Z,52.18
2024-02-27T11:50:11.306Z,52.09
2024-02-27T11:52:37.833Z,52.09
2024-02-27T11:55:14.765Z,52.14
2024-02-27T11:57:41.371Z,52.35
2024-02-27T12:00:13.735Z,52.05
2024-02-27T12:02:45.007Z,52.08
2024-02-27T12:05:11.489Z,52.18
2024-02-27T12:07:38.018Z,52.47
2024-02-27T12:10:15.195Z,52.13
2024-02-27T12:12:42.310Z,51.97
2024-02-27T12:15:10.837Z,52.13
2024-02-27T12:17:37.982Z,51.55
2024-02-27T12:20:10.638Z,51.98
2024-02-27T12:22:42.305Z,51.92
2024-02-27T12:25:08.794Z,51.58
2024-02-27T12:27:36.614Z,51.76
2024-02-27T12:30:09.603Z,51.56
2024-02-27T12:32:36.270Z,51.39
2024-02-27T12:35:06.560Z,51.37
2024-02-27T12:37:41.395Z,51.08
2024-02-27T12:40:12.067Z,50.97
2024-02-27T12:42:41.058Z,50.54
2024-02-27T12:45:11.666Z,50.60
2024-02-27T12:47:41.896Z,50.62
2024-02-27T12:50:09.980Z,50.36
2024-02-27T12:52:37.698Z,50.16
2024-02-27T12:55:06.263Z,49.87
2024-02-27T12:57:33.036Z,49.82
2024-02-27T12:59:59.555Z,49.57
2024-02-27T13:02:26.447Z,49.40
2024-02-27T13:04:53.026Z,49.21
2024-02-27T13:07:19.805Z,49.19
2024-02-27T13:09:46.671Z,48.83
2024-02-27T13:12:17.165Z,48.91
2024-02-27T13:14:43.601Z,48.93
2024-02-27T13:17:10.102Z,48.38
2024-02-27T13:19:37.668Z,48.36
2024-02-27T13:22:04.665Z,48.38
2024-02-27T13:24:31.143Z,48.37
2024-02-27T13:26:57.631Z,48.11
2024-02-27T13:29:24.709Z,48.07
2024-02-27T13:31:51.407Z,48.01
2024-02-27T13:34:18.473Z,47.99
2024-02-27T13:36:45.422Z,47.79
2024-02-27T13:39:12.758Z,48.16
2024-02-27T13:41:39.390Z,48.18
2024-02-27T13:44:05.999Z,48.19
2024-02-27T13:46:32.502Z,48.14
2024-02-27T13:48:59.170Z,48.39
2024-02-27T13:51:26.077Z,48.42
2024-02-27T13:53:53.374Z,48.27
2024-02-27T13:56:19.993Z,47.96
2024-02-27T13:58:46.406Z,47.91
2024-02-27T14:01:13.008Z,47.83
2024-02-27T14:03:39.747Z,47.75
2024-02-27T14:06:06.815Z,47.57
2024-02-27T14:08:34.502Z,47.79
2024-02-27T14:11:01.805Z,47.62
2024-02-27T14:13:28.832Z,46.70
2024-02-27T14:15:55.459Z,46.36
2024-02-27T14:18:22.278Z,45.02
2024-02-27T14:20:48.731Z,44.99
2024-02-27T14:23:15.133Z,42.28
2024-02-27T14:25:41.549Z,44.61
2024-02-27T14:28:07.946Z,43.91
2024-02-27T14:30:34.579Z,42.92
2024-02-27T14:33:01.697Z,43.08
2024-02-27T14:35:28.252Z,43.19
2024-02-27T14:37:56.300Z,43.40
2024-02-27T14:40:22.759Z,43.71
2024-02-27T14:42:49.736Z,44.42
2024-02-27T14:45:16.412Z,45.35
2024-02-27T14:47:42.852Z,45.41
2024-02-27T14:50:09.770Z,46.08
2024-02-27T14:52:36.315Z,46.16
2024-02-27T14:55:03.728Z,46.43
2024-02-27T14:57:30.627Z,47.05
2024-02-27T14:59:57.092Z,47.35
2024-02-27T15:02:23.625Z,47.21
2024-02-27T15:04:50.852Z,47.74
2024-02-27T15:07:17.544Z,47.61
2024-02-27T15:09:44.082Z,47.90
2024-02-27T15:12:10.607Z,47.86
2024-02-27T15:14:37.392Z,47.87
2024-02-27T15:17:04.011Z,48.21
2024-02-27T15:19:30.665Z,48.40
2024-02-27T15:21:57.200Z,48.15
2024-02-27T15:24:23.688Z,48.15
2024-02-27T15:26:50.837Z,48.38
2024-02-27T15:29:17.484Z,48.48
2024-02-27T15:31:44.597Z,48.82
2024-02-27T15:34:11.305Z,48.61
2024-02-27T15:36:37.820Z,48.55
2024-02-27T15:39:07.484Z,48.77
2024-02-27T15:41:33.981Z,48.99
2024-02-27T15:44:08.065Z,48.83
2024-02-27T15:46:38.700Z,49.08
2024-02-27T15:49:05.907Z,49.40
2024-02-27T15:51:32.423Z,48.88
2024-02-27T15:53:58.868Z,48.77
2024-02-27T15:56:25.307Z,49.28
2024-02-27T15:58:51.728Z,49.50
2024-02-27T16:01:18.462Z,49.27
2024-02-27T16:04:23.883Z,49.20
2024-02-27T16:07:10.686Z,49.12
2024-02-27T16:09:37.948Z,49.05
2024-02-27T16:12:14.569Z,49.50
2024-02-27T16:14:46.327Z,50.04
2024-02-27T16:17:12.796Z,50.48
2024-02-27T16:19:40.023Z,50.36
2024-02-27T16:22:09.903Z,50.37
2024-02-27T16:24:36.369Z,50.15
2024-02-27T16:27:05.127Z,50.04
2024-02-27T16:29:31.999Z,49.79
2024-02-27T16:31:58.429Z,50.06
2024-02-27T16:34:25.099Z,50.28
2024-02-27T16:36:52.385Z,50.38
2024-02-27T16:39:18.967Z,50.46
2024-02-27T16:41:45.442Z,50.33
2024-02-27T16:44:11.912Z,50.29
2024-02-27T16:46:38.270Z,50.46
2024-02-27T16:49:04.864Z,50.46
2024-02-27T16:51:31.322Z,50.56
2024-02-27T16:53:57.851Z,50.52
2024-02-27T16:56:24.385Z,50.50
2024-02-27T16:58:52.078Z,50.53
2024-02-27T17:01:18.615Z,50.14
2024-02-27T17:03:45.577Z,50.77
2024-02-27T17:06:14.311Z,50.62
2024-02-27T17:08:40.989Z,51.98
2024-02-27T17:11:08.756Z,51.62
2024-02-27T17:13:35.225Z,52.02
2024-02-27T17:16:01.786Z,52.41
2024-02-27T17:18:29.385Z,52.65
2024-02-27T17:20:57.057Z,53.26
2024-02-27T17:23:25.719Z,53.44
2024-02-27T17:25:56.023Z,54.20
2024-02-27T17:28:23.929Z,54.22
2024-02-27T17:30:50.438Z,54.41
2024-02-27T17:33:17.106Z,54.11
2024-02-27T17:35:43.641Z,53.53
2024-02-27T17:38:10.317Z,54.04
2024-02-27T17:40:36.776Z,54.23
2024-02-27T17:43:03.381Z,53.97
2024-02-27T17:45:30.174Z,54.27
2024-02-27T17:47:56.722Z,53.73
2024-02-27T17:50:23.212Z,53.45
2024-02-27T17:52:49.620Z,53.78
2024-02-27T17:55:16.246Z,53.45
2024-02-27T17:57:42.773Z,53.51
2024-02-27T18:00:09.833Z,53.64
2024-02-27T18:02:36.245Z,53.84
2024-02-27T18:05:02.763Z,53.45
2024-02-27T18:07:29.396Z,53.25
2024-02-27T18:09:56.326Z,53.55
2024-02-27T18:12:22.883Z,53.84
2024-02-27T18:14:49.792Z,53.19
2024-02-27T18:17:16.234Z,53.36
2024-02-27T18:19:44.630Z,53.42
2024-02-27T18:22:11.229Z,53.01
2024-02-27T18:24:37.860Z,53.17
2024-02-27T18:27:06.408Z,53.09
2024-02-27T18:29:35.030Z,53.16
2024-02-27T18:32:02.027Z,53.07
2024-02-27T18:34:28.966Z,53.24
2024-02-27T18:36:55.425Z,53.44
2024-02-27T18:39:21.914Z,53.13
2024-02-27T18:41:48.511Z,53.17
2024-02-27T18:44:14.960Z,53.03
2024-02-27T18:46:41.454Z,53.02
2024-02-27T18:49:08.125Z,53.03
2024-02-27T18:51:39.817Z,53.01
2024-02-27T18:54:06.338Z,53.28
2024-02-27T18:56:32.959Z,52.79
2024-02-27T18:58:59.374Z,52.53
2024-02-27T19:01:25.781Z,53.12
2024-02-27T19:03:52.304Z,53.00
2024-02-27T19:06:18.834Z,53.20
2024-02-27T19:08:46.572Z,52.74
2024-02-27T19:11:13.172Z,52.86
2024-02-27T19:13:40.127Z,53.15
2024-02-27T19:16:06.993Z,53.00
2024-02-27T19:18:33.725Z,53.28
2024-02-27T19:21:00.227Z,53.49
2024-02-27T19:23:26.917Z,53.15
2024-02-27T19:25:53.361Z,53.30
2024-02-27T19:28:19.790Z,53.13
2024-02-27T19:30:47.523Z,53.51
2024-02-27T19:33:14.736Z,53.67
2024-02-27T19:35:41.580Z,54.42
2024-02-27T19:38:13.935Z,54.62
2024-02-27T19:40:45.076Z,54.60
2024-02-27T19:43:11.606Z,54.90
2024-02-27T19:45:38.146Z,54.34
2024-02-27T19:48:05.495Z,54.41
2024-02-27T19:50:32.238Z,54.42
2024-02-27T19:52:58.679Z,54.16
2024-02-27T19:55:25.106Z,53.75
2024-02-27T19:57:51.570Z,53.97
2024-02-27T20:00:19.378Z,54.24
2024-02-27T20:02:45.879Z,54.72
2024-02-27T20:05:13.994Z,54.04
2024-02-27T20:07:40.464Z,54.22
2024-02-27T20:10:08.137Z,54.36
2024-02-27T20:12:36.444Z,54.29
2024-02-27T20:15:03.254Z,54.36
2024-02-27T20:17:29.709Z,54.15
2024-02-27T20:19:56.323Z,53.99
2024-02-27T20:22:22.758Z,54.05
2024-02-27T20:24:49.210Z,54.04
2024-02-27T20:27:15.740Z,53.92
2024-02-27T20:29:55.860Z,54.02
2024-02-27T20:32:25.935Z,54.05
2024-02-27T20:34:52.421Z,53.80
2024-02-27T20:37:18.909Z,53.99
2024-02-27T20:39:45.489Z,53.63
2024-02-27T20:42:12.143Z,54.25
2024-02-27T20:44:38.633Z,53.51
2024-02-27T20:47:05.195Z,53.61
2024-02-27T20:49:31.644Z,53.33
2024-02-27T20:51:58.071Z,53.91
2024-02-27T20:54:24.546Z,53.86
2024-02-27T20:56:51.050Z,53.39
2024-02-27T20:59:17.504Z,53.47
2024-02-27T21:01:43.972Z,53.73
2024-02-27T21:04:10.482Z,53.35
2024-02-27T21:06:37.078Z,53.66
2024-02-27T21:09:04.722Z,53.59
2024-02-27T21:11:31.476Z,53.58
2024-02-27T21:13:57.997Z,53.56
2024-02-27T21:16:24.396Z,53.06
2024-02-27T21:18:50.849Z,53.19
2024-02-27T21:21:17.299Z,53.34
2024-02-27T21:23:43.909Z,53.15
2024-02-27T21:26:10.784Z,53.15
2024-02-27T21:28:37.470Z,52.89
2024-02-27T21:31:05.424Z,52.92
2024-02-27T21:33:32.281Z,53.25
2024-02-27T21:35:58.745Z,53.19
2024-02-27T21:38:25.163Z,52.83
2024-02-27T21:40:51.657Z,53.15
2024-02-27T21:43:18.178Z,53.17
2024-02-27T21:45:44.781Z,52.77
2024-02-27T21:48:11.484Z,52.83
2024-02-27T21:50:37.975Z,52.94
2024-02-27T21:53:05.726Z,52.53
2024-02-27T21:55:32.200Z,52.54
2024-02-27T21:57:58.648Z,52.75
2024-02-27T22:00:25.259Z,52.78
2024-02-27T22:02:51.751Z,52.49
2024-02-27T22:05:19.449Z,52.68
2024-02-27T22:07:46.060Z,52.81
2024-02-27T22:10:12.575Z,52.66
2024-02-27T22:12:38.991Z,52.34
2024-02-27T22:15:05.999Z,52.32
2024-02-27T22:17:32.410Z,52.72
2024-02-27T22:19:58.824Z,52.25
2024-02-27T22:22:25.885Z,52.21
2024-02-27T22:24:52.467Z,52.55
2024-02-27T22:27:19.031Z,52.44
2024-02-27T22:29:46.120Z,52.50
2024-02-27T22:32:12.711Z,52.21
2024-02-27T22:34:39.270Z,52.19
2024-02-27T22:37:05.829Z,52.37
2024-02-27T22:39:32.281Z,52.51
2024-02-27T22:41:58.750Z,52.32
2024-02-27T22:44:25.203Z,52.45
2024-02-27T22:46:51.560Z,52.19
2024-02-27T22:49:18.051Z,52.10
2024-02-27T22:51:44.471Z,51.91
2024-02-27T22:54:10.940Z,52.37
2024-02-27T22:56:37.458Z,52.18
2024-02-27T22:59:03.908Z,51.91
2024-02-27T23:01:30.409Z,51.91
2024-02-27T23:03:56.968Z,51.89
2024-02-27T23:06:23.502Z,51.76
2024-02-27T23:08:49.928Z,51.90
2024-02-27T23:11:16.358Z,51.77
2024-02-27T23:13:42.839Z,52.15
2024-02-27T23:16:09.356Z,51.92
2024-02-27T23:18:35.965Z,51.60
2024-02-27T23:21:03.362Z,51.35
2024-02-27T23:23:29.791Z,51.50
2024-02-27T23:25:56.316Z,51.90
2024-02-27T23:28:25.639Z,51.25
2024-02-27T23:30:55.295Z,51.36
2024-02-27T23:33:21.771Z,51.50
2024-02-27T23:35:48.702Z,51.49
2024-02-27T23:38:17.862Z,51.92
2024-02-27T23:40:46.951Z,51.69
2024-02-27T23:43:13.362Z,51.67
2024-02-27T23:45:39.797Z,51.60
2024-02-27T23:48:06.455Z,52.15
2024-02-27T23:50:32.916Z,51.71
2024-02-27T23:52:59.299Z,51.97
2024-02-27T23:55:25.683Z,52.07
2024-02-27T23:57:52.161Z,52.34
